WetterOnline ( https://www.wetteronline.de )

Wetter aktuell San Marino

Aktuelles Wetter: Cervia (10m)

6-stündlich | Neueste Meldungen
Ortszeit Temperatur Wetter
Fr, 27.01. 19:00 4.2° C wolkig
Fr, 27.01. 13:00 4.2° C wolkig
Fr, 27.01. 7:00 1.2° C leicht bewölkt
Fr, 27.01. 1:00 2.6° C bewölkt
Do, 26.01. 19:00 5.2° C wolkig
Do, 26.01. 13:00 5.8° C bedeckt
Do, 26.01. 7:00 3.2° C wolkig
Do, 26.01. 1:00 5.8° C wolkig
Ortszeit Temperatur Wetter
Sa, 28.01. 0:00 3.2° C wolkig
Fr, 27.01. 23:00 3.2° C bewölkt
Fr, 27.01. 22:00 3.2° C wolkig
Fr, 27.01. 21:00 3.2° C bewölkt
Fr, 27.01. 20:00 3.8° C bewölkt
Fr, 27.01. 19:00 4.2° C wolkig
Fr, 27.01. 18:00 4.2° C bewölkt
Ortszeit Relative Feuchte Sichtweite
Fr, 27.01. 19:00 71% 15 km
Fr, 27.01. 13:00 77% 13 km
Fr, 27.01. 7:00 86% 16 km
Fr, 27.01. 1:00 87% 11 km
Do, 26.01. 19:00 83% 20 km
Do, 26.01. 13:00 80% 20 km
Do, 26.01. 7:00 88% 15 km
Do, 26.01. 1:00 90% 15 km
Ortszeit Relative Feuchte Sichtweite
Sa, 28.01. 0:00 83% 11 km
Fr, 27.01. 23:00 88% 10 km
Fr, 27.01. 22:00 84% 10 km
Fr, 27.01. 21:00 80% 10 km
Fr, 27.01. 20:00 78% 10 km
Fr, 27.01. 19:00 71% 15 km
Fr, 27.01. 18:00 75% 13 km
Ortszeit Niederschlagsmenge Niederschlagsart
Fr, 27.01. 19:00 0.0 l/m2 in 12 Std. -
Fr, 27.01. 13:00 0.0 l/m2 in 6 Std. -
Fr, 27.01. 7:00 0.0 l/m2 in 12 Std. -
Fr, 27.01. 1:00 0.0 l/m2 in 6 Std. -
Do, 26.01. 19:00 0.0 l/m2 in 12 Std. -
Do, 26.01. 13:00 0.0 l/m2 in 6 Std. -
Do, 26.01. 7:00 0.0 l/m2 in 12 Std. -
Do, 26.01. 1:00 0.0 l/m2 in 6 Std. -
Ortszeit Niederschlagsmenge Niederschlagsart
Sa, 28.01. 0:00 keine Meldung -
Fr, 27.01. 23:00 keine Meldung -
Fr, 27.01. 22:00 keine Meldung -
Fr, 27.01. 21:00 keine Meldung -
Fr, 27.01. 20:00 keine Meldung -
Fr, 27.01. 19:00 keine Meldung -
Fr, 27.01. 18:00 keine Meldung -
Ortszeit Stärke Spitze Richtung
km/h Bft. km/h Grad Sektor
Fr, 27.01. 19:00 7 2 - 230° SW
Fr, 27.01. 13:00 11 2 - 260° W
Fr, 27.01. 7:00 13 3 - 270° W
Fr, 27.01. 1:00 9 2 - 260° W
Do, 26.01. 19:00 9 2 - 280° W
Do, 26.01. 13:00 15 3 - 290° W
Do, 26.01. 7:00 19 3 - 290° W
Do, 26.01. 1:00 9 2 - 280° W
Ortszeit Stärke Spitze Richtung
km/h Bft. km/h Grad Sektor
Sa, 28.01. 0:00 4 1 - 330° NW
Fr, 27.01. 23:00 9 2 - 240° SW
Fr, 27.01. 22:00 9 2 - 230° SW
Fr, 27.01. 21:00 4 1 - 280° W
Fr, 27.01. 20:00 6 1 - 250° W
Fr, 27.01. 19:00 7 2 - 230° SW
Fr, 27.01. 18:00 9 2 - 280° W
Ortszeit Untergrenze Bedeckung Gattung
total tief tief mittel hoch
Fr, 27.01. 19:00 900 m 6/8 6/8 Cu - -
Fr, 27.01. 13:00 1050 m 7/8 4/8 Cu Ac -
Fr, 27.01. 7:00 1050 m 5/8 5/8 Cu - -
Fr, 27.01. 1:00 1200 m 7/8 7/8 Sc - -
Do, 26.01. 19:00 1500 m 5/8 5/8 Cu - -
Do, 26.01. 13:00 900 m 8/8 8/8 Cu - -
Do, 26.01. 7:00 1380 m 6/8 6/8 Cu - -
Do, 26.01. 1:00 900 m 5/8 5/8 Cu - -
Ortszeit Bedeckungsgrad in Achtel und Wolkenuntergrenze
Sa, 28.01. 0:00 3(900m) 4(1800m)
Fr, 27.01. 23:00 3(900m) 6(1800m)
Fr, 27.01. 22:00 3(900m) 5(1500m)
Fr, 27.01. 21:00 3(900m) 5(1800m)
Fr, 27.01. 20:00 3(900m) 6(2100m)
Fr, 27.01. 19:00 3(900m) 5(1500m)
Fr, 27.01. 18:00 2(750m) 3(1050m) 5(1800m)
Ortszeit Luftdruck NN (hPa) Tendenz (hPa in 3 Std.)
Fr, 27.01. 19:00 1013 + 1,0
Fr, 27.01. 13:00 1013 - 0,2
Fr, 27.01. 7:00 1012 + 0,2
Fr, 27.01. 1:00 1012 - 0,5
Do, 26.01. 19:00 1013 - 0,4
Do, 26.01. 13:00 1014 - 1,7
Do, 26.01. 7:00 1016 - 0,8
Do, 26.01. 1:00 1019 - 1,0
Ortszeit Luftdruck NN (hPa) Tendenz (hPa in 3 Std.)
Sa, 28.01. 0:00 1015 + 1,0
Fr, 27.01. 23:00 1015 + 0,8
Fr, 27.01. 22:00 1014 + 1,0
Fr, 27.01. 21:00 1014 + 1,0
Fr, 27.01. 20:00 1014 + 1,5
Fr, 27.01. 19:00 1013 + 1,0
Fr, 27.01. 18:00 1013 + 0,8
Ortszeit Schneehöhe (cm)
Fr, 27.01. 19:00 -
Fr, 27.01. 13:00 -
Fr, 27.01. 7:00 0
Fr, 27.01. 1:00 -
Do, 26.01. 19:00 -
Do, 26.01. 13:00 -
Do, 26.01. 7:00 0
Do, 26.01. 1:00 -
Ortszeit Schneehöhe (cm)
Sa, 28.01. 0:00 -
Fr, 27.01. 23:00 -
Fr, 27.01. 22:00 -
Fr, 27.01. 21:00 -
Fr, 27.01. 20:00 -
Fr, 27.01. 19:00 -
Fr, 27.01. 18:00 -
Link zu dieser Seite / Seite empfehlen

Das Wetter in ...